Ops Hamburg — A8VS9 — position and weather

sailwx.info

Track history (hours):
 
Tides and Currents Weather Stations Pressure Air Temp Water Temp Dewpoint Dewpoint Depression Visibility Wind Speed Wind Dir Waves Ship Positions

Ops Hamburg

Last reported at 2016-Apr-27 09:29 UTC. Time now 2016-Apr-30 11:14 UTC.
Position N 35°06' W 001°52'.

Length 148 m; draft 7.3 m.

Type: Cargo ship. MMSI: 636092040.

Date/timePositionNaut miles runAvg speedWind from/ knotsBaromVisibWave heightAir tempDewpointWater temp
2016-Apr-27 09:29N 35°06' W 001°52'71 3.1
2016-Apr-26 10:33N 36°09' W 001°11'1211.8
2016-Apr-26 09:33N 36°20' W 001°04'2713.3
2016-Apr-26 07:33N 36°43' W 000°48'1513.8
2016-Apr-26 06:29N 36°56' W 000°39'1313.1
2016-Apr-26 05:29N 37°08' W 000°32'1313.3
2016-Apr-26 04:31N 37°20' W 000°25'1313.6
2016-Apr-26 03:34N 37°32' W 000°19'1813.6
2016-Apr-26 02:13N 37°48' W 000°10'1013.1
2016-Apr-26 01:28N 37°57' W 000°05'2913.2
2016-Apr-25 23:15N 38°24' E 000°09'98 2.5
2016-Apr-24 08:09N 39°54' E 000°59'712.2
2016-Apr-24 07:33N 39°60' E 001°06'1212.6
2016-Apr-24 06:33N 40°09' E 001°16'1312.8
2016-Apr-24 05:33N 40°19' E 001°27'1312.8
2016-Apr-24 04:33N 40°28' E 001°39'1312.6
2016-Apr-24 03:33N 40°37' E 001°50'1212.3
2016-Apr-24 02:33N 40°46' E 002°02'1212.3
2016-Apr-24 01:33N 40°54' E 002°14'1211.9
2016-Apr-24 00:33N 41°02' E 002°26'1312.4
2016-Apr-23 23:33N 41°10' E 002°38'1512.5
2016-Apr-23 22:19N 41°21' E 002°53'8512.3
2016-Apr-23 15:25N 42°22' E 004°13'2212.0
2016-Apr-23 13:33N 42°39' E 004°32'3912.7
2016-Apr-23 10:29N 43°09' E 005°06'1011.1
2016-Apr-23 09:33N 43°18' E 005°13'6 0.3
2016-Apr-22 15:09N 43°21' E 005°20'0 0.0
2016-Apr-22 12:21N 43°21' E 005°20'0 0.0
2016-Apr-22 10:09N 43°21' E 005°20'0 0.0
2016-Apr-22 09:27N 43°21' E 005°20'0 0.0
2016-Apr-22 07:33N 43°21' E 005°20'6 6.1
2016-Apr-22 06:33N 43°18' E 005°13'9110.8
2016-Apr-21 22:12N 43°17' E 007°18'1015.4
2016-Apr-21 21:33N 43°23' E 007°28'1615.3
2016-Apr-21 20:32N 43°33' E 007°46'1515.6
2016-Apr-21 19:33N 43°42' E 008°02'1615.9
2016-Apr-21 18:33N 43°53' E 008°18'1615.5
2016-Apr-21 17:33N 44°03' E 008°34'1514.9
2016-Apr-21 16:33N 44°14' E 008°49'1111.2
2016-Apr-21 15:33N 44°24' E 008°56'1 1.2
2016-Apr-21 14:29N 44°24' E 008°54'0 0.0
2016-Apr-21 13:29N 44°24' E 008°54'0 0.0
2016-Apr-21 12:32N 44°24' E 008°54'0 0.0
2016-Apr-21 11:32N 44°24' E 008°54'0 0.0
2016-Apr-21 10:29N 44°24' E 008°54'0 0.0
2016-Apr-21 09:32N 44°24' E 008°54'0 0.0
2016-Apr-21 08:32N 44°24' E 008°54'0 0.0
2016-Apr-21 07:32N 44°24' E 008°54'0 0.0
2016-Apr-21 06:32N 44°24' E 008°54'0 0.0
2016-Apr-21 05:32N 44°24' E 008°54'0 0.0
2016-Apr-21 04:29N 44°24' E 008°54'0 0.0
2016-Apr-21 03:33N 44°24' E 008°54'6 5.8
2016-Apr-21 02:33N 44°20' E 008°59'1313.3
2016-Apr-21 01:33N 44°10' E 009°12'1414.3
2016-Apr-21 00:33N 44°02' E 009°28'1313.3
2016-Apr-20 23:33N 43°58' E 009°46'9 9.2
2016-Apr-20 22:34N 44°06' E 009°51'0 0.2
2016-Apr-20 21:32N 44°06' E 009°51'0 0.0
2016-Apr-20 20:32N 44°06' E 009°51'0 0.0
2016-Apr-20 19:32N 44°06' E 009°51'0 0.0
2016-Apr-20 18:29N 44°06' E 009°51'0 0.0
2016-Apr-20 17:32N 44°06' E 009°51'0 0.0
2016-Apr-20 16:32N 44°06' E 009°51'0 0.0
2016-Apr-20 15:29N 44°06' E 009°51'0 0.0
2016-Apr-20 14:32N 44°06' E 009°51'0 0.0
2016-Apr-20 13:32N 44°06' E 009°51'0 0.0
2016-Apr-20 12:32N 44°06' E 009°51'0 0.0
2016-Apr-20 11:32N 44°06' E 009°51'0 0.0
2016-Apr-20 10:32N 44°06' E 009°51'31 4.9
2016-Apr-20 04:08N 43°39' E 009°31'913.0
2016-Apr-20 03:29N 43°32' E 009°23'41014.7
2016-Apr-18 23:33N 37°59' E 004°07'  
Track history (hours):
 
Tides and Currents Weather Stations Pressure Air Temp Water Temp Dewpoint Dewpoint Depression Visibility Wind Speed Wind Dir Waves Ship Positions

Ops Hamburg

Last reported at 2016-Apr-27 09:29 UTC. Time now 2016-Apr-30 11:14 UTC.
Position N 35°06' W 001°52'.

Length 148 m; draft 7.3 m.

Type: Cargo ship. MMSI: 636092040.

Date/timePositionNaut miles runAvg speedWind from/ knotsBaromVisibWave heightAir tempDewpointWater temp
2016-Apr-27 09:29N 35°06' W 001°52'71 3.1
2016-Apr-26 10:33N 36°09' W 001°11'1211.8
2016-Apr-26 09:33N 36°20' W 001°04'2713.3
2016-Apr-26 07:33N 36°43' W 000°48'1513.8
2016-Apr-26 06:29N 36°56' W 000°39'1313.1
2016-Apr-26 05:29N 37°08' W 000°32'1313.3
2016-Apr-26 04:31N 37°20' W 000°25'1313.6
2016-Apr-26 03:34N 37°32' W 000°19'1813.6
2016-Apr-26 02:13N 37°48' W 000°10'1013.1
2016-Apr-26 01:28N 37°57' W 000°05'2913.2
2016-Apr-25 23:15N 38°24' E 000°09'98 2.5
2016-Apr-24 08:09N 39°54' E 000°59'712.2
2016-Apr-24 07:33N 39°60' E 001°06'1212.6
2016-Apr-24 06:33N 40°09' E 001°16'1312.8
2016-Apr-24 05:33N 40°19' E 001°27'1312.8
2016-Apr-24 04:33N 40°28' E 001°39'1312.6
2016-Apr-24 03:33N 40°37' E 001°50'1212.3
2016-Apr-24 02:33N 40°46' E 002°02'1212.3
2016-Apr-24 01:33N 40°54' E 002°14'1211.9
2016-Apr-24 00:33N 41°02' E 002°26'1312.4
2016-Apr-23 23:33N 41°10' E 002°38'1512.5
2016-Apr-23 22:19N 41°21' E 002°53'8512.3
2016-Apr-23 15:25N 42°22' E 004°13'2212.0
2016-Apr-23 13:33N 42°39' E 004°32'3912.7
2016-Apr-23 10:29N 43°09' E 005°06'1011.1
2016-Apr-23 09:33N 43°18' E 005°13'6 0.3
2016-Apr-22 15:09N 43°21' E 005°20'0 0.0
2016-Apr-22 12:21N 43°21' E 005°20'0 0.0
2016-Apr-22 10:09N 43°21' E 005°20'0 0.0
2016-Apr-22 09:27N 43°21' E 005°20'0 0.0
2016-Apr-22 07:33N 43°21' E 005°20'6 6.1
2016-Apr-22 06:33N 43°18' E 005°13'9110.8
2016-Apr-21 22:12N 43°17' E 007°18'1015.4
2016-Apr-21 21:33N 43°23' E 007°28'1615.3
2016-Apr-21 20:32N 43°33' E 007°46'1515.6
2016-Apr-21 19:33N 43°42' E 008°02'1615.9
2016-Apr-21 18:33N 43°53' E 008°18'1615.5
2016-Apr-21 17:33N 44°03' E 008°34'1514.9
2016-Apr-21 16:33N 44°14' E 008°49'1111.2
2016-Apr-21 15:33N 44°24' E 008°56'1 1.2
2016-Apr-21 14:29N 44°24' E 008°54'0 0.0
2016-Apr-21 13:29N 44°24' E 008°54'0 0.0
2016-Apr-21 12:32N 44°24' E 008°54'0 0.0
2016-Apr-21 11:32N 44°24' E 008°54'0 0.0
2016-Apr-21 10:29N 44°24' E 008°54'0 0.0
2016-Apr-21 09:32N 44°24' E 008°54'0 0.0
2016-Apr-21 08:32N 44°24' E 008°54'0 0.0
2016-Apr-21 07:32N 44°24' E 008°54'0 0.0
2016-Apr-21 06:32N 44°24' E 008°54'0 0.0
2016-Apr-21 05:32N 44°24' E 008°54'0 0.0
2016-Apr-21 04:29N 44°24' E 008°54'0 0.0
2016-Apr-21 03:33N 44°24' E 008°54'6 5.8
2016-Apr-21 02:33N 44°20' E 008°59'1313.3
2016-Apr-21 01:33N 44°10' E 009°12'1414.3
2016-Apr-21 00:33N 44°02' E 009°28'1313.3
2016-Apr-20 23:33N 43°58' E 009°46'9 9.2
2016-Apr-20 22:34N 44°06' E 009°51'0 0.2
2016-Apr-20 21:32N 44°06' E 009°51'0 0.0
2016-Apr-20 20:32N 44°06' E 009°51'0 0.0
2016-Apr-20 19:32N 44°06' E 009°51'0 0.0
2016-Apr-20 18:29N 44°06' E 009°51'0 0.0
2016-Apr-20 17:32N 44°06' E 009°51'0 0.0
2016-Apr-20 16:32N 44°06' E 009°51'0 0.0
2016-Apr-20 15:29N 44°06' E 009°51'0 0.0
2016-Apr-20 14:32N 44°06' E 009°51'0 0.0
2016-Apr-20 13:32N 44°06' E 009°51'0 0.0
2016-Apr-20 12:32N 44°06' E 009°51'0 0.0
2016-Apr-20 11:32N 44°06' E 009°51'0 0.0
2016-Apr-20 10:32N 44°06' E 009°51'31 4.9
2016-Apr-20 04:08N 43°39' E 009°31'913.0
2016-Apr-20 03:29N 43°32' E 009°23'41014.7
2016-Apr-18 23:33N 37°59' E 004°07'  

Dump ship's entire track history